BAW172 EGCC-EGPH
Flight info
| Callsign | BAW172 |
|---|---|
| Flight time | 0h 35m |
| Altitude | 24000 |
| Route | POL1Y POL N601 INPIP INPIP1E |
| Aircraft | B77W/H-SDE1E2E3FGHIJ2J3J4J5M1RWXY/LB1D1 |
Departure
| Time | 2026-04-26 08:38 |
|---|---|
| Airport | Manchester Airport (EGCC) |
Arrival
| Time | 2026-04-26 09:13 |
|---|---|
| Airport | Edinburgh Airport (EGPH) |
| Time | Latitude | Longitude | Altitude | Speed | Heading |
|---|---|---|---|---|---|
| 2026-04-26 08:24 | 53.36170 | -2.27774 | 247 ft | 0 kts | 45° |
| 2026-04-26 08:28 | 53.36165 | -2.27782 | 247 ft | 2 kts | 45° |
| 2026-04-26 08:29 | 53.36154 | -2.27800 | 246 ft | 2 kts | 44° |
| 2026-04-26 08:29 | 53.36144 | -2.27818 | 245 ft | 2 kts | 44° |
| 2026-04-26 08:29 | 53.36133 | -2.27835 | 245 ft | 2 kts | 44° |
| 2026-04-26 08:29 | 53.36122 | -2.27853 | 244 ft | 2 kts | 44° |
| 2026-04-26 08:30 | 53.36111 | -2.27872 | 244 ft | 2 kts | 53° |
| 2026-04-26 08:30 | 53.36105 | -2.27895 | 244 ft | 2 kts | 89° |
| 2026-04-26 08:30 | 53.36108 | -2.27919 | 243 ft | 2 kts | 118° |
| 2026-04-26 08:30 | 53.36113 | -2.27933 | 243 ft | 0 kts | 136° |
| 2026-04-26 08:31 | 53.36116 | -2.27937 | 243 ft | 0 kts | 136° |
| 2026-04-26 08:33 | 53.36111 | -2.27930 | 243 ft | 3 kts | 136° |
| 2026-04-26 08:34 | 53.36075 | -2.27876 | 244 ft | 10 kts | 142° |
| 2026-04-26 08:34 | 53.36019 | -2.27844 | 245 ft | 10 kts | 175° |
| 2026-04-26 08:34 | 53.35917 | -2.27853 | 245 ft | 16 kts | 183° |
| 2026-04-26 08:34 | 53.35829 | -2.27771 | 246 ft | 13 kts | 137° |
| 2026-04-26 08:35 | 53.35768 | -2.27688 | 248 ft | 9 kts | 148° |
| 2026-04-26 08:35 | 53.35716 | -2.27637 | 249 ft | 7 kts | 152° |
| 2026-04-26 08:35 | 53.35677 | -2.27602 | 249 ft | 4 kts | 152° |
| 2026-04-26 08:35 | 53.35658 | -2.27579 | 250 ft | 2 kts | 141° |
| 2026-04-26 08:36 | 53.35625 | -2.27537 | 251 ft | 12 kts | 142° |
| 2026-04-26 08:36 | 53.35524 | -2.27397 | 253 ft | 25 kts | 142° |
| 2026-04-26 08:36 | 53.35370 | -2.27214 | 259 ft | 26 kts | 165° |
| 2026-04-26 08:36 | 53.35180 | -2.27244 | 256 ft | 28 kts | 198° |
| 2026-04-26 08:37 | 53.34992 | -2.27346 | 251 ft | 26 kts | 221° |
| 2026-04-26 08:37 | 53.34869 | -2.27607 | 241 ft | 31 kts | 229° |
| 2026-04-26 08:37 | 53.34659 | -2.28038 | 231 ft | 78 kts | 231° |
| 2026-04-26 08:37 | 53.34089 | -2.29173 | 210 ft | 165 kts | 228° |
| 2026-04-26 08:38 | 53.33247 | -2.30803 | 782 ft | 195 kts | 229° |
| 2026-04-26 08:38 | 53.32423 | -2.32594 | 1874 ft | 198 kts | 229° |
| 2026-04-26 08:38 | 53.31636 | -2.34504 | 2460 ft | 212 kts | 245° |
| 2026-04-26 08:38 | 53.31303 | -2.36980 | 2947 ft | 232 kts | 268° |
| 2026-04-26 08:39 | 53.31649 | -2.39704 | 3539 ft | 250 kts | 294° |
| 2026-04-26 08:39 | 53.32754 | -2.42008 | 4165 ft | 265 kts | 323° |
| 2026-04-26 08:39 | 53.34470 | -2.43208 | 4880 ft | 277 kts | 351° |
| 2026-04-26 08:39 | 53.36452 | -2.43095 | 5438 ft | 293 kts | 6° |
| 2026-04-26 08:40 | 53.38663 | -2.43246 | 6051 ft | 308 kts | 348° |
| 2026-04-26 08:40 | 53.40905 | -2.44238 | 6791 ft | 321 kts | 342° |
| 2026-04-26 08:40 | 53.43068 | -2.45388 | 7616 ft | 329 kts | 341° |
| 2026-04-26 08:40 | 53.45338 | -2.46092 | 8447 ft | 336 kts | 0° |
| 2026-04-26 08:41 | 53.47624 | -2.45352 | 9260 ft | 343 kts | 21° |
| 2026-04-26 08:41 | 53.49878 | -2.43935 | 10094 ft | 347 kts | 13° |
| 2026-04-26 08:41 | 53.52258 | -2.43143 | 10908 ft | 351 kts | 9° |
| 2026-04-26 08:41 | 53.54678 | -2.42449 | 11685 ft | 356 kts | 9° |
| 2026-04-26 08:42 | 53.57117 | -2.41756 | 12452 ft | 361 kts | 8° |
| 2026-04-26 08:42 | 53.59602 | -2.41049 | 13198 ft | 365 kts | 8° |
| 2026-04-26 08:42 | 53.62127 | -2.40330 | 13927 ft | 370 kts | 8° |
| 2026-04-26 08:42 | 53.64690 | -2.39599 | 14650 ft | 374 kts | 8° |
| 2026-04-26 08:43 | 53.67287 | -2.38858 | 15187 ft | 380 kts | 8° |
| 2026-04-26 08:43 | 53.69916 | -2.38107 | 15268 ft | 380 kts | 8° |
| 2026-04-26 08:43 | 53.72641 | -2.37326 | 15272 ft | 378 kts | 8° |
| 2026-04-26 08:43 | 53.75316 | -2.36559 | 15273 ft | 378 kts | 8° |
| 2026-04-26 08:44 | 53.77959 | -2.35800 | 15272 ft | 378 kts | 8° |
| 2026-04-26 08:44 | 53.80635 | -2.35031 | 15269 ft | 378 kts | 8° |
| 2026-04-26 08:44 | 53.83281 | -2.34269 | 15272 ft | 378 kts | 8° |
| 2026-04-26 08:44 | 53.85950 | -2.33499 | 15270 ft | 377 kts | 8° |
| 2026-04-26 08:45 | 53.88601 | -2.32734 | 15270 ft | 377 kts | 8° |
| 2026-04-26 08:45 | 53.91312 | -2.31951 | 15268 ft | 377 kts | 8° |
| 2026-04-26 08:45 | 53.94023 | -2.31167 | 15270 ft | 377 kts | 8° |
| 2026-04-26 08:45 | 53.96688 | -2.30394 | 15270 ft | 377 kts | 8° |
| 2026-04-26 08:46 | 53.99309 | -2.29795 | 15272 ft | 376 kts | 1° |
| 2026-04-26 08:46 | 54.01901 | -2.29975 | 15271 ft | 373 kts | 349° |
| 2026-04-26 08:46 | 54.04489 | -2.31016 | 15269 ft | 370 kts | 339° |
| 2026-04-26 08:46 | 54.06933 | -2.32633 | 15270 ft | 370 kts | 336° |
| 2026-04-26 08:47 | 54.09393 | -2.34338 | 15263 ft | 369 kts | 336° |
| 2026-04-26 08:47 | 54.11840 | -2.36040 | 15259 ft | 370 kts | 336° |
| 2026-04-26 08:47 | 54.14368 | -2.37798 | 15259 ft | 370 kts | 336° |
| 2026-04-26 08:47 | 54.16879 | -2.39545 | 15255 ft | 370 kts | 336° |
| 2026-04-26 08:48 | 54.19348 | -2.41260 | 15253 ft | 370 kts | 336° |
| 2026-04-26 08:48 | 54.21804 | -2.42969 | 15251 ft | 370 kts | 336° |
| 2026-04-26 08:48 | 54.24223 | -2.44652 | 15247 ft | 371 kts | 336° |
| 2026-04-26 08:48 | 54.26724 | -2.46396 | 15250 ft | 371 kts | 336° |
| 2026-04-26 08:49 | 54.29169 | -2.48102 | 15253 ft | 371 kts | 336° |
| 2026-04-26 08:49 | 54.31582 | -2.49789 | 15254 ft | 371 kts | 336° |
| 2026-04-26 08:49 | 54.34054 | -2.51518 | 15256 ft | 371 kts | 336° |
| 2026-04-26 08:49 | 54.36527 | -2.53251 | 15255 ft | 371 kts | 336° |
| 2026-04-26 08:50 | 54.39018 | -2.54999 | 15255 ft | 371 kts | 336° |
| 2026-04-26 08:50 | 54.41481 | -2.56729 | 15258 ft | 372 kts | 336° |
| 2026-04-26 08:50 | 54.43998 | -2.58500 | 15256 ft | 372 kts | 336° |
| 2026-04-26 08:50 | 54.46533 | -2.60285 | 15257 ft | 372 kts | 336° |
| 2026-04-26 08:51 | 54.51595 | -2.63859 | 15255 ft | 372 kts | 336° |
| 2026-04-26 08:51 | 54.54079 | -2.65617 | 15255 ft | 372 kts | 335° |
| 2026-04-26 08:51 | 54.56556 | -2.67373 | 15253 ft | 372 kts | 335° |
| 2026-04-26 08:52 | 54.59038 | -2.69135 | 15256 ft | 373 kts | 335° |
| 2026-04-26 08:52 | 54.61572 | -2.70936 | 15257 ft | 372 kts | 335° |
| 2026-04-26 08:52 | 54.64146 | -2.72768 | 15255 ft | 373 kts | 335° |
| 2026-04-26 08:52 | 54.66711 | -2.74596 | 15258 ft | 373 kts | 335° |
| 2026-04-26 08:53 | 54.69309 | -2.76450 | 15260 ft | 372 kts | 335° |
| 2026-04-26 08:53 | 54.71917 | -2.78313 | 15261 ft | 373 kts | 335° |
| 2026-04-26 08:53 | 54.74554 | -2.80200 | 15264 ft | 372 kts | 335° |
| 2026-04-26 08:53 | 54.77126 | -2.82043 | 15262 ft | 373 kts | 335° |
| 2026-04-26 08:54 | 54.79694 | -2.83886 | 15259 ft | 373 kts | 335° |
| 2026-04-26 08:54 | 54.82220 | -2.85701 | 15261 ft | 374 kts | 335° |
| 2026-04-26 08:54 | 54.84792 | -2.87552 | 15263 ft | 373 kts | 335° |
| 2026-04-26 08:55 | 54.89783 | -2.91150 | 15297 ft | 373 kts | 335° |
| 2026-04-26 08:55 | 54.97588 | -2.96811 | 15254 ft | 374 kts | 335° |
| 2026-04-26 08:56 | 55.00199 | -2.98704 | 15268 ft | 374 kts | 335° |
| 2026-04-26 08:56 | 55.02776 | -3.00572 | 15260 ft | 374 kts | 335° |
| 2026-04-26 08:56 | 55.05324 | -3.02422 | 15256 ft | 374 kts | 335° |
| 2026-04-26 08:56 | 55.07939 | -3.04326 | 15260 ft | 374 kts | 335° |
| 2026-04-26 08:57 | 55.10454 | -3.06159 | 15238 ft | 371 kts | 335° |
| 2026-04-26 08:57 | 55.12965 | -3.07992 | 14866 ft | 367 kts | 335° |
| 2026-04-26 08:57 | 55.15436 | -3.09801 | 14232 ft | 369 kts | 335° |
| 2026-04-26 08:57 | 55.17990 | -3.11672 | 13676 ft | 368 kts | 335° |
| 2026-04-26 08:58 | 55.20577 | -3.13569 | 13246 ft | 364 kts | 335° |
| 2026-04-26 08:58 | 55.23143 | -3.15454 | 12780 ft | 360 kts | 335° |
| 2026-04-26 08:58 | 55.25701 | -3.17336 | 12304 ft | 357 kts | 335° |
| 2026-04-26 08:58 | 55.28177 | -3.19006 | 11816 ft | 356 kts | 341° |
| 2026-04-26 08:59 | 55.30804 | -3.19897 | 11317 ft | 357 kts | 353° |
| 2026-04-26 08:59 | 55.33366 | -3.19894 | 10862 ft | 356 kts | 2° |
| 2026-04-26 08:59 | 55.35861 | -3.19515 | 10439 ft | 353 kts | 3° |
| 2026-04-26 08:59 | 55.38564 | -3.19083 | 9973 ft | 350 kts | 4° |
| 2026-04-26 09:00 | 55.41192 | -3.18667 | 9497 ft | 348 kts | 3° |
| 2026-04-26 09:00 | 55.43794 | -3.18257 | 9263 ft | 342 kts | 4° |
| 2026-04-26 09:00 | 55.46397 | -3.17848 | 9244 ft | 346 kts | 4° |
| 2026-04-26 09:00 | 55.49023 | -3.17436 | 9244 ft | 346 kts | 3° |
| 2026-04-26 09:01 | 55.51625 | -3.17028 | 9239 ft | 346 kts | 3° |
| 2026-04-26 09:01 | 55.54205 | -3.16621 | 9241 ft | 338 kts | 3° |
| 2026-04-26 09:01 | 55.56761 | -3.16218 | 9240 ft | 332 kts | 3° |
| 2026-04-26 09:01 | 55.59202 | -3.15524 | 9237 ft | 330 kts | 16° |
| 2026-04-26 09:02 | 55.61553 | -3.14032 | 9059 ft | 326 kts | 19° |
| 2026-04-26 09:02 | 55.63858 | -3.12476 | 8595 ft | 328 kts | 20° |
| 2026-04-26 09:02 | 55.66085 | -3.10967 | 8264 ft | 326 kts | 20° |
| 2026-04-26 09:02 | 55.68372 | -3.09418 | 7937 ft | 323 kts | 20° |
| 2026-04-26 09:03 | 55.70639 | -3.07885 | 7589 ft | 321 kts | 20° |
| 2026-04-26 09:03 | 55.72745 | -3.06464 | 7474 ft | 310 kts | 20° |
| 2026-04-26 09:03 | 55.74790 | -3.05082 | 7456 ft | 296 kts | 19° |
| 2026-04-26 09:03 | 55.76704 | -3.03783 | 7400 ft | 284 kts | 19° |
| 2026-04-26 09:04 | 55.78568 | -3.02513 | 7125 ft | 280 kts | 20° |
| 2026-04-26 09:04 | 55.80436 | -3.01243 | 6800 ft | 279 kts | 20° |
| 2026-04-26 09:04 | 55.82318 | -2.99968 | 6465 ft | 277 kts | 20° |
| 2026-04-26 09:04 | 55.84207 | -2.98690 | 6136 ft | 276 kts | 20° |
| 2026-04-26 09:05 | 55.86095 | -2.97414 | 5812 ft | 274 kts | 19° |
| 2026-04-26 09:05 | 55.87993 | -2.96129 | 5468 ft | 273 kts | 19° |
| 2026-04-26 09:05 | 55.89851 | -2.94872 | 5145 ft | 271 kts | 19° |
| 2026-04-26 09:05 | 55.91728 | -2.93603 | 4811 ft | 270 kts | 19° |
| 2026-04-26 09:06 | 55.93557 | -2.92365 | 4481 ft | 269 kts | 19° |
| 2026-04-26 09:06 | 55.95308 | -2.91178 | 4168 ft | 268 kts | 19° |
| 2026-04-26 09:06 | 55.97047 | -2.89995 | 3991 ft | 266 kts | 19° |
| 2026-04-26 09:06 | 55.98801 | -2.88803 | 3969 ft | 261 kts | 20° |
| 2026-04-26 09:07 | 56.00520 | -2.87804 | 3943 ft | 249 kts | 3° |
| 2026-04-26 09:07 | 56.02235 | -2.88248 | 3748 ft | 239 kts | 332° |
| 2026-04-26 09:07 | 56.03558 | -2.90178 | 3437 ft | 234 kts | 301° |
| 2026-04-26 09:07 | 56.04066 | -2.92973 | 3141 ft | 227 kts | 270° |
| 2026-04-26 09:08 | 56.04066 | -2.95989 | 2908 ft | 231 kts | 269° |
| 2026-04-26 09:08 | 56.04056 | -2.99020 | 2662 ft | 228 kts | 269° |
| 2026-04-26 09:08 | 56.04045 | -3.02000 | 2438 ft | 230 kts | 269° |
| 2026-04-26 09:08 | 56.04035 | -3.04897 | 2218 ft | 229 kts | 269° |
| 2026-04-26 09:09 | 56.04024 | -3.07714 | 2009 ft | 228 kts | 268° |
| 2026-04-26 09:09 | 56.03798 | -3.10538 | 1777 ft | 226 kts | 251° |
| 2026-04-26 09:09 | 56.03148 | -3.13144 | 1561 ft | 225 kts | 241° |
| 2026-04-26 09:09 | 56.02336 | -3.15625 | 1346 ft | 226 kts | 238° |
| 2026-04-26 09:10 | 56.01527 | -3.17980 | 1147 ft | 218 kts | 238° |
| 2026-04-26 09:10 | 56.00756 | -3.20231 | 936 ft | 200 kts | 238° |
| 2026-04-26 09:10 | 56.00070 | -3.22250 | 768 ft | 180 kts | 239° |
| 2026-04-26 09:10 | 55.99475 | -3.24034 | 725 ft | 159 kts | 240° |
| 2026-04-26 09:11 | 55.98954 | -3.25708 | 785 ft | 153 kts | 240° |
| 2026-04-26 09:11 | 55.98415 | -3.27332 | 624 ft | 147 kts | 238° |
| 2026-04-26 09:11 | 55.97866 | -3.28895 | 487 ft | 146 kts | 237° |
| 2026-04-26 09:11 | 55.97339 | -3.30417 | 453 ft | 145 kts | 239° |
| 2026-04-26 09:12 | 55.96812 | -3.31957 | 382 ft | 145 kts | 239° |
| 2026-04-26 09:12 | 55.96278 | -3.33503 | 267 ft | 145 kts | 238° |
| 2026-04-26 09:12 | 55.95738 | -3.35073 | 164 ft | 146 kts | 238° |
| 2026-04-26 09:12 | 55.95216 | -3.36593 | 108 ft | 131 kts | 239° |
| 2026-04-26 09:13 | 55.94838 | -3.37742 | 105 ft | 85 kts | 239° |
| 2026-04-26 09:13 | 55.94733 | -3.38014 | 109 ft | 15 kts | 218° |
| 2026-04-26 09:13 | 55.94665 | -3.38018 | 108 ft | 9 kts | 159° |
| 2026-04-26 09:13 | 55.94616 | -3.37948 | 110 ft | 9 kts | 124° |
| 2026-04-26 09:14 | 55.94606 | -3.37881 | 110 ft | 3 kts | 80° |
| 2026-04-26 09:14 | 55.94629 | -3.37781 | 110 ft | 16 kts | 63° |
| 2026-04-26 09:14 | 55.94716 | -3.37518 | 107 ft | 32 kts | 60° |
| 2026-04-26 09:14 | 55.94855 | -3.37099 | 107 ft | 44 kts | 58° |
| 2026-04-26 09:15 | 55.94968 | -3.36763 | 106 ft | 21 kts | 58° |
| 2026-04-26 09:15 | 55.95037 | -3.36564 | 108 ft | 14 kts | 58° |
| 2026-04-26 09:15 | 55.95050 | -3.36426 | 108 ft | 10 kts | 128° |
| 2026-04-26 09:15 | 55.95006 | -3.36331 | 108 ft | 9 kts | 120° |
| 2026-04-26 09:16 | 55.94992 | -3.36282 | 108 ft | 3 kts | 117° |
| 2026-04-26 09:16 | 55.94987 | -3.36267 | 109 ft | 0 kts | 117° |